Time;durP1;ratioP1;P1;durP2;ratioP2;P2;SDS_P1;SDS_P2;PMS_P1;PMS_P2;Temp;Humidity;BMP_temperature;BMP_pressure;BME280_temperature;BME280_humidity;BME280_pressure;Samples;Min_cycle;Max_cycle;Signal;HPM_P1;HPM_P2
2023/03/22 00:00:27;;;;;;;6.10;2.95;;;10.00;91.40;;;;;;5055352;28;20036;-67
2023/03/22 00:02:55;;;;;;;8.50;2.90;;;10.00;91.50;;;;;;5055816;28;20035;-67
2023/03/22 00:05:20;;;;;;;7.18;2.80;;;10.00;91.60;;;;;;5052580;28;20032;-66
2023/03/22 00:07:49;;;;;;;4.70;2.60;;;10.00;91.90;;;;;;5056264;28;20037;-66
2023/03/22 00:10:16;;;;;;;4.57;2.33;;;10.00;91.50;;;;;;5058686;28;20029;-66
2023/03/22 00:12:42;;;;;;;5.05;2.42;;;10.00;91.70;;;;;;5055352;28;20108;-66
2023/03/22 00:15:09;;;;;;;4.65;2.58;;;10.00;92.00;;;;;;5061533;28;20163;-65
2023/03/22 00:17:35;;;;;;;6.03;2.75;;;9.80;92.60;;;;;;5057853;28;20031;-67
2023/03/22 00:20:05;;;;;;;4.25;2.50;;;9.80;92.60;;;;;;5053639;28;20028;-66
2023/03/22 00:22:33;;;;;;;5.43;2.90;;;9.80;92.70;;;;;;5053710;28;20377;-66
2023/03/22 00:24:58;;;;;;;5.47;2.50;;;9.90;92.60;;;;;;5054280;28;20025;-66
2023/03/22 00:27:24;;;;;;;4.65;2.53;;;9.70;94.10;;;;;;5052352;28;20115;-66
2023/03/22 00:29:52;;;;;;;6.80;3.08;;;9.60;93.80;;;;;;5063437;28;20025;-66
2023/03/22 00:32:18;;;;;;;5.35;2.72;;;9.50;93.80;;;;;;5056160;28;20028;-66
2023/03/22 00:34:43;;;;;;;5.55;2.92;;;9.40;94.00;;;;;;5066854;28;20086;-65
2023/03/22 00:37:09;;;;;;;6.43;2.63;;;9.40;94.10;;;;;;5063758;28;20032;-65
2023/03/22 00:39:34;;;;;;;6.82;2.90;;;9.40;94.20;;;;;;5064102;28;20059;-65
2023/03/22 00:42:02;;;;;;;5.40;2.70;;;9.50;93.90;;;;;;5052462;28;20033;-65
2023/03/22 00:44:27;;;;;;;5.03;2.58;;;9.50;94.00;;;;;;5058115;28;20033;-64
2023/03/22 00:46:53;;;;;;;5.15;2.88;;;9.40;94.00;;;;;;5056292;28;20036;-66
2023/03/22 00:49:18;;;;;;;6.20;3.20;;;9.40;94.40;;;;;;5054844;28;20041;-67
2023/03/22 00:51:44;;;;;;;5.47;2.60;;;9.30;94.60;;;;;;5046268;28;20095;-66
2023/03/22 00:54:10;;;;;;;4.60;2.53;;;9.00;95.50;;;;;;5055807;28;20081;-67
2023/03/22 00:56:37;;;;;;;6.63;2.60;;;8.80;96.00;;;;;;5076354;28;20069;-67
2023/03/22 00:59:03;;;;;;;6.15;3.15;;;8.60;96.70;;;;;;5057665;28;20032;-67
2023/03/22 01:01:29;;;;;;;7.05;3.08;;;8.40;96.90;;;;;;5055049;28;20021;-67
2023/03/22 01:03:54;;;;;;;5.45;2.80;;;8.40;97.00;;;;;;5056110;28;20043;-66
2023/03/22 01:06:20;;;;;;;8.23;2.95;;;8.40;96.90;;;;;;5058894;28;20021;-66
2023/03/22 01:08:49;;;;;;;6.78;2.72;;;8.20;96.90;;;;;;5053209;28;20044;-66
2023/03/22 01:11:15;;;;;;;7.15;3.00;;;7.90;97.30;;;;;;5053292;28;20493;-68
2023/03/22 01:13:41;;;;;;;6.25;2.60;;;7.80;97.20;;;;;;5052886;28;20047;-66
2023/03/22 01:16:07;;;;;;;5.15;3.08;;;7.60;97.30;;;;;;5072349;28;20028;-67
2023/03/22 01:18:34;;;;;;;5.07;3.05;;;7.30;97.10;;;;;;5067721;28;20395;-66
2023/03/22 01:21:00;;;;;;;10.20;2.63;;;7.10;96.60;;;;;;5054927;28;20138;-66
2023/03/22 01:23:25;;;;;;;4.72;2.67;;;7.00;96.40;;;;;;5052723;28;20029;-66
2023/03/22 01:25:51;;;;;;;7.47;2.83;;;6.90;96.00;;;;;;5053756;28;20084;-67
2023/03/22 01:28:16;;;;;;;6.45;3.15;;;6.90;95.80;;;;;;5052741;28;20055;-65
2023/03/22 01:30:42;;;;;;;8.02;3.40;;;6.90;96.40;;;;;;5056708;28;20031;-66
2023/03/22 01:33:08;;;;;;;4.93;3.00;;;6.80;96.00;;;;;;5055050;28;20437;-66
2023/03/22 01:35:34;;;;;;;6.00;3.30;;;6.90;96.00;;;;;;5056887;28;20025;-66
2023/03/22 01:38:00;;;;;;;4.97;3.00;;;7.00;96.80;;;;;;5051749;28;20117;-67
2023/03/22 01:40:26;;;;;;;5.68;3.40;;;7.00;96.80;;;;;;5052658;28;20113;-65
2023/03/22 01:42:53;;;;;;;7.88;3.05;;;7.00;96.80;;;;;;5073256;28;20036;-66
2023/03/22 01:45:35;;;;;;;7.05;3.38;;;7.00;96.80;;;;;;5056260;28;20028;-66
2023/03/22 01:48:22;;;;;;;7.30;3.55;;;6.90;96.80;;;;;;5051233;28;20082;-66
2023/03/22 01:50:57;;;;;;;8.82;3.25;;;6.70;96.40;;;;;;5048737;28;20104;-66
2023/03/22 01:53:24;;;;;;;5.05;2.95;;;6.60;96.10;;;;;;5052070;28;20021;-66
2023/03/22 01:55:51;;;;;;;7.05;3.33;;;6.60;96.10;;;;;;5050537;28;20440;-65
2023/03/22 01:58:17;;;;;;;8.70;4.18;;;6.50;95.60;;;;;;5053243;28;20082;-66
2023/03/22 02:00:45;;;;;;;6.88;3.42;;;6.50;95.60;;;;;;5053517;28;20021;-64
2023/03/22 02:03:13;;;;;;;8.00;3.25;;;6.40;95.40;;;;;;5062172;28;20061;-64
2023/03/22 02:05:39;;;;;;;5.72;3.03;;;6.40;95.30;;;;;;5053226;28;20029;-67
2023/03/22 02:08:07;;;;;;;5.88;3.25;;;6.40;95.80;;;;;;5047891;28;20024;-65
2023/03/22 02:10:33;;;;;;;7.38;3.20;;;6.40;95.50;;;;;;5054041;28;20025;-65
2023/03/22 02:13:17;;;;;;;6.80;3.15;;;6.40;95.60;;;;;;5033076;28;20441;-65
2023/03/22 02:16:18;;;;;;;7.95;3.83;;;6.30;95.70;;;;;;5048622;28;20076;-64
2023/03/22 02:18:58;;;;;;;7.65;3.50;;;6.30;94.90;;;;;;5031624;28;20040;-66
2023/03/22 02:21:37;;;;;;;6.30;3.20;;;6.30;95.60;;;;;;5043586;28;20036;-65
2023/03/22 02:24:24;;;;;;;6.15;3.47;;;6.30;95.60;;;;;;5055274;28;20056;-65
2023/03/22 02:27:26;;;;;;;5.40;3.38;;;6.30;95.60;;;;;;5052278;28;20045;-65
2023/03/22 02:30:02;;;;;;;5.22;2.92;;;6.30;95.60;;;;;;5054135;28;20021;-65
2023/03/22 02:33:00;;;;;;;7.20;3.28;;;6.20;95.40;;;;;;5052104;28;20028;-65
2023/03/22 02:35:54;;;;;;;8.40;3.65;;;6.10;94.90;;;;;;5054563;28;20151;-65
2023/03/22 02:38:22;;;;;;;7.28;3.50;;;6.10;94.90;;;;;;5041441;28;20025;-65
2023/03/22 02:41:05;;;;;;;8.30;3.08;;;6.20;95.20;;;;;;5061910;28;20064;-66
2023/03/22 02:43:59;;;;;;;5.50;3.08;;;6.10;95.40;;;;;;5051792;28;20037;-65
2023/03/22 02:46:54;;;;;;;7.15;3.65;;;6.10;95.00;;;;;;5056519;28;20104;-66
2023/03/22 02:49:41;;;;;;;6.95;3.70;;;6.10;95.20;;;;;;5010065;28;20321;-65
2023/03/22 02:52:18;;;;;;;5.82;3.33;;;6.10;95.10;;;;;;5061900;28;20017;-65
2023/03/22 02:55:24;;;;;;;7.28;3.13;;;6.10;95.20;;;;;;5052171;28;20041;-66
2023/03/22 02:58:11;;;;;;;5.85;3.38;;;6.10;95.00;;;;;;5053211;28;20083;-65
2023/03/22 03:00:38;;;;;;;7.63;3.33;;;6.30;95.70;;;;;;5061168;28;20393;-65
2023/03/22 03:03:13;;;;;;;6.85;3.53;;;6.30;95.90;;;;;;5067061;28;20028;-66
2023/03/22 03:05:43;;;;;;;7.38;3.55;;;6.30;96.10;;;;;;5040477;28;20021;-65
2023/03/22 03:08:11;;;;;;;7.43;3.13;;;6.30;96.10;;;;;;5057981;28;20096;-65
2023/03/22 03:10:39;;;;;;;6.43;3.70;;;6.20;96.10;;;;;;5060869;28;20017;-65
2023/03/22 03:13:09;;;;;;;6.78;3.70;;;6.10;95.40;;;;;;5057515;28;20307;-65
2023/03/22 03:15:38;;;;;;;5.78;3.10;;;6.10;95.60;;;;;;5062929;28;20329;-66
2023/03/22 03:18:33;;;;;;;6.55;3.35;;;6.00;95.30;;;;;;5069624;28;20029;-65
2023/03/22 03:21:33;;;;;;;7.07;3.22;;;5.90;94.60;;;;;;5051536;28;20625;-65
2023/03/22 03:24:28;;;;;;;6.93;3.60;;;5.80;94.30;;;;;;5062807;28;20111;-66
2023/03/22 03:27:06;;;;;;;6.68;3.47;;;5.80;94.10;;;;;;5039031;28;20045;-65
2023/03/22 03:29:41;;;;;;;6.82;3.58;;;5.70;93.80;;;;;;5034119;28;20033;-65
2023/03/22 03:32:11;;;;;;;7.60;3.70;;;5.70;93.70;;;;;;5029425;28;20334;-64
2023/03/22 03:35:00;;;;;;;7.38;3.78;;;5.60;93.70;;;;;;5037464;28;20080;-64
2023/03/22 03:37:38;;;;;;;6.10;3.58;;;5.60;93.00;;;;;;5003786;28;20041;-64
2023/03/22 03:40:11;;;;;;;7.30;4.07;;;5.60;93.30;;;;;;5036045;28;20030;-65
2023/03/22 03:42:42;;;;;;;7.82;3.53;;;5.60;93.20;;;;;;5034014;28;20056;-66
2023/03/22 03:45:09;;;;;;;6.22;3.28;;;5.60;93.60;;;;;;5033362;28;20116;-68
2023/03/22 03:47:35;;;;;;;10.00;4.00;;;5.60;93.10;;;;;;5037971;28;20080;-65
2023/03/22 03:50:05;;;;;;;7.15;3.53;;;5.60;93.20;;;;;;5035403;28;20021;-67
2023/03/22 03:52:30;;;;;;;5.88;3.70;;;5.60;93.20;;;;;;5019399;28;20053;-66
2023/03/22 03:54:56;;;;;;;7.63;3.88;;;5.50;93.60;;;;;;5045757;28;20142;-66
2023/03/22 03:57:22;;;;;;;6.60;4.03;;;5.40;93.30;;;;;;5035305;28;20064;-66
2023/03/22 03:59:48;;;;;;;6.63;3.38;;;5.30;92.90;;;;;;5050726;28;20317;-66
2023/03/22 04:02:13;;;;;;;6.18;3.47;;;5.20;92.30;;;;;;5054090;28;20033;-65
2023/03/22 04:04:39;;;;;;;7.15;3.80;;;5.10;91.80;;;;;;5043431;28;20097;-66
2023/03/22 04:07:05;;;;;;;9.38;3.85;;;5.10;91.20;;;;;;5035174;28;20026;-65
2023/03/22 04:09:34;;;;;;;5.22;3.15;;;5.20;91.40;;;;;;5042971;28;20034;-65
2023/03/22 04:12:00;;;;;;;5.95;3.13;;;5.20;90.90;;;;;;5030846;28;20415;-65
2023/03/22 04:14:26;;;;;;;6.50;3.75;;;5.20;91.30;;;;;;5035132;28;20148;-65
2023/03/22 04:16:54;;;;;;;7.18;3.10;;;5.10;91.50;;;;;;5031830;28;20030;-64
2023/03/22 04:19:26;;;;;;;6.15;3.42;;;5.10;91.40;;;;;;5034294;28;20025;-65
2023/03/22 04:21:53;;;;;;;6.30;3.30;;;5.10;91.30;;;;;;5032436;28;20083;-66
2023/03/22 04:24:20;;;;;;;6.32;3.42;;;5.00;91.10;;;;;;5035363;28;20037;-65
2023/03/22 04:26:46;;;;;;;5.68;3.20;;;5.00;91.20;;;;;;5032085;28;20323;-66
2023/03/22 04:29:12;;;;;;;4.78;2.90;;;4.90;90.90;;;;;;5040452;28;20028;-67
2023/03/22 04:31:38;;;;;;;7.65;3.20;;;4.90;90.60;;;;;;5035293;28;20017;-66
2023/03/22 04:34:05;;;;;;;10.82;3.08;;;4.90;91.40;;;;;;5042156;28;20040;-66
2023/03/22 04:36:38;;;;;;;6.10;2.60;;;4.80;91.20;;;;;;5029377;28;20036;-66
2023/03/22 04:39:07;;;;;;;5.20;3.35;;;4.80;90.70;;;;;;5028713;28;20116;-66
2023/03/22 04:41:34;;;;;;;4.53;2.97;;;4.80;91.10;;;;;;5033152;28;20029;-64
2023/03/22 04:44:02;;;;;;;5.60;3.50;;;4.80;90.40;;;;;;5033274;28;20061;-63
2023/03/22 04:46:29;;;;;;;7.93;2.85;;;4.70;90.50;;;;;;5034758;28;20014;-65
2023/03/22 04:48:57;;;;;;;5.60;3.25;;;4.70;90.40;;;;;;5034764;28;20057;-65
2023/03/22 04:51:24;;;;;;;5.47;3.35;;;4.70;90.50;;;;;;5037311;28;20108;-65
2023/03/22 04:53:50;;;;;;;6.60;3.35;;;4.70;89.90;;;;;;5035880;28;20025;-66
2023/03/22 04:56:15;;;;;;;5.55;3.00;;;4.60;90.50;;;;;;5031121;28;20385;-64
2023/03/22 04:58:42;;;;;;;5.88;3.20;;;4.60;90.10;;;;;;5053323;28;20025;-67
2023/03/22 05:01:10;;;;;;;6.90;3.28;;;4.60;90.10;;;;;;5039313;28;20034;-66
2023/03/22 05:03:36;;;;;;;5.55;3.30;;;4.60;90.10;;;;;;5038333;28;20033;-64
2023/03/22 05:06:05;;;;;;;9.45;3.22;;;4.60;90.70;;;;;;5046128;28;20025;-65
2023/03/22 05:08:32;;;;;;;5.10;3.15;;;4.60;90.70;;;;;;5042010;28;20387;-66
2023/03/22 05:11:03;;;;;;;4.85;2.65;;;4.60;90.80;;;;;;5034586;28;20307;-65
2023/03/22 05:13:29;;;;;;;8.10;3.00;;;4.70;91.10;;;;;;5034111;28;20033;-65
2023/03/22 05:15:55;;;;;;;5.47;3.10;;;4.80;92.60;;;;;;5035191;28;20032;-66
2023/03/22 05:18:25;;;;;;;5.50;2.70;;;4.90;93.90;;;;;;5034821;28;20056;-65
2023/03/22 05:20:54;;;;;;;5.70;2.40;;;4.90;94.40;;;;;;5034901;28;20120;-65
2023/03/22 05:23:23;;;;;;;5.93;2.95;;;4.90;95.10;;;;;;5032770;28;20320;-67
2023/03/22 05:25:50;;;;;;;5.40;2.40;;;4.90;95.80;;;;;;5036731;28;20028;-66
2023/03/22 05:28:21;;;;;;;5.90;2.88;;;5.00;96.10;;;;;;5030723;28;20120;-65
2023/03/22 05:30:47;;;;;;;5.63;2.58;;;5.00;98.00;;;;;;5026384;28;20112;-66
2023/03/22 05:33:13;;;;;;;5.45;2.00;;;5.40;98.00;;;;;;5031037;28;20037;-66
2023/03/22 05:35:40;;;;;;;4.20;2.17;;;5.60;98.00;;;;;;5035652;28;20449;-66
2023/03/22 05:38:07;;;;;;;5.95;2.08;;;5.80;98.00;;;;;;5035181;28;20029;-66
2023/03/22 05:40:33;;;;;;;7.35;2.20;;;6.00;98.00;;;;;;5030652;28;20053;-66
2023/03/22 05:42:59;;;;;;;4.88;1.98;;;6.20;97.50;;;;;;5031230;28;20064;-66
2023/03/22 05:45:27;;;;;;;5.82;1.95;;;6.20;97.20;;;;;;5034788;28;20028;-66
2023/03/22 05:47:53;;;;;;;5.47;2.22;;;6.20;97.20;;;;;;5039741;28;20108;-66
2023/03/22 05:50:21;;;;;;;7.57;2.25;;;6.20;97.10;;;;;;5035130;28;20100;-66
2023/03/22 05:52:47;;;;;;;3.83;1.90;;;6.30;96.60;;;;;;5035932;28;20038;-66
2023/03/22 05:55:16;;;;;;;5.40;1.70;;;6.40;95.50;;;;;;5044097;28;20025;-66
2023/03/22 05:57:42;;;;;;;6.05;1.95;;;6.50;95.10;;;;;;5041946;28;20026;-67
2023/03/22 06:00:15;;;;;;;5.55;1.85;;;6.70;93.90;;;;;;5037336;28;20422;-66
2023/03/22 06:02:45;;;;;;;5.05;1.90;;;7.00;93.10;;;;;;5038017;28;20040;-67
2023/03/22 06:05:12;;;;;;;4.70;2.25;;;7.00;92.10;;;;;;5041665;28;20028;-66
2023/03/22 06:07:38;;;;;;;4.65;1.83;;;7.00;92.30;;;;;;5034245;28;20021;-66
2023/03/22 06:10:06;;;;;;;5.05;1.80;;;7.00;91.80;;;;;;5035593;28;20021;-67
2023/03/22 06:12:32;;;;;;;3.60;1.65;;;7.20;91.20;;;;;;5034268;28;20025;-66
2023/03/22 06:14:58;;;;;;;6.45;1.60;;;7.20;91.30;;;;;;5035831;28;20406;-66
2023/03/22 06:17:24;;;;;;;6.10;1.77;;;7.30;90.90;;;;;;5035093;28;20326;-66
2023/03/22 06:19:50;;;;;;;5.20;2.00;;;7.40;90.60;;;;;;5037836;28;20037;-66
2023/03/22 06:22:17;;;;;;;3.45;1.70;;;7.60;89.90;;;;;;5037788;28;20385;-66
2023/03/22 06:24:43;;;;;;;5.13;2.13;;;7.80;90.30;;;;;;5037073;28;20032;-65
2023/03/22 06:27:09;;;;;;;8.40;4.97;;;8.00;90.70;;;;;;5034347;28;20719;-65
2023/03/22 06:29:35;;;;;;;7.47;3.80;;;8.20;90.50;;;;;;5031255;28;20037;-65
2023/03/22 06:32:01;;;;;;;4.47;2.22;;;8.50;90.20;;;;;;5032179;28;20121;-65
2023/03/22 06:34:27;;;;;;;6.75;2.67;;;8.60;89.60;;;;;;5038170;28;20021;-65
2023/03/22 06:36:52;;;;;;;4.43;1.70;;;8.70;89.60;;;;;;5036223;28;20050;-67
2023/03/22 06:39:19;;;;;;;6.85;2.17;;;8.80;89.30;;;;;;5037926;28;20046;-68
2023/03/22 06:41:45;;;;;;;8.48;2.33;;;8.90;89.20;;;;;;5037285;28;20017;-68
2023/03/22 06:44:11;;;;;;;6.10;2.88;;;9.00;89.10;;;;;;5036739;28;20373;-67
2023/03/22 06:46:36;;;;;;;4.35;2.45;;;9.10;88.90;;;;;;5038086;28;20359;-66
2023/03/22 06:49:02;;;;;;;2.58;1.35;;;9.20;88.90;;;;;;5037071;28;20029;-66
2023/03/22 06:51:27;;;;;;;3.53;1.38;;;9.40;88.60;;;;;;5035070;28;20025;-66
2023/03/22 06:53:53;;;;;;;6.80;2.25;;;9.60;87.80;;;;;;5036133;28;20041;-66
2023/03/22 06:56:19;;;;;;;5.50;1.40;;;9.80;87.70;;;;;;5039051;28;20021;-66
2023/03/22 06:58:44;;;;;;;3.50;1.60;;;9.90;87.60;;;;;;5024187;28;20056;-66
2023/03/22 07:01:10;;;;;;;2.88;1.27;;;10.00;88.30;;;;;;5036090;28;20040;-66
2023/03/22 07:03:35;;;;;;;3.95;1.55;;;10.20;87.10;;;;;;5037893;28;20055;-66
2023/03/22 07:06:06;;;;;;;3.75;1.40;;;10.20;86.80;;;;;;5038663;28;20176;-66
2023/03/22 07:08:33;;;;;;;5.45;1.52;;;10.30;85.70;;;;;;5037062;28;20024;-67
2023/03/22 07:10:59;;;;;;;2.70;1.30;;;10.50;85.50;;;;;;5033131;28;20096;-67
2023/03/22 07:13:24;;;;;;;3.75;1.75;;;10.60;85.70;;;;;;5035497;28;20492;-66
2023/03/22 07:15:58;;;;;;;4.70;1.95;;;10.70;85.50;;;;;;5036568;28;20033;-66
2023/03/22 07:18:24;;;;;;;6.32;2.33;;;10.80;85.40;;;;;;5038342;28;20413;-66
2023/03/22 07:20:50;;;;;;;7.75;2.70;;;10.90;85.30;;;;;;5038674;28;20161;-66
2023/03/22 07:23:16;;;;;;;4.03;1.90;;;11.00;85.30;;;;;;5038147;28;20037;-66
2023/03/22 07:25:43;;;;;;;3.45;1.40;;;11.10;83.80;;;;;;5037372;28;20533;-66
2023/03/22 07:28:10;;;;;;;4.03;1.50;;;11.20;83.70;;;;;;5037162;28;20038;-66
2023/03/22 07:30:36;;;;;;;4.43;1.30;;;11.20;83.80;;;;;;5037426;28;20018;-66
2023/03/22 07:33:05;;;;;;;3.15;1.30;;;11.30;84.10;;;;;;5038392;28;20026;-66
2023/03/22 07:35:31;;;;;;;5.28;1.30;;;11.50;84.10;;;;;;5038265;28;20049;-66
2023/03/22 07:37:57;;;;;;;9.75;1.52;;;11.60;83.50;;;;;;5036797;28;20041;-66
2023/03/22 07:40:23;;;;;;;6.47;1.73;;;11.70;83.70;;;;;;5038355;28;20032;-66
2023/03/22 07:42:49;;;;;;;2.50;1.20;;;11.80;83.80;;;;;;5036940;28;20354;-66
2023/03/22 07:45:16;;;;;;;3.92;1.10;;;11.90;83.10;;;;;;5038108;28;20049;-66
2023/03/22 07:47:43;;;;;;;3.17;1.00;;;12.00;83.40;;;;;;5038172;28;20079;-66
2023/03/22 07:50:12;;;;;;;2.00;1.05;;;12.00;83.10;;;;;;5037908;28;20033;-66
2023/03/22 07:52:41;;;;;;;4.30;1.50;;;12.10;83.80;;;;;;5034985;28;20379;-66
2023/03/22 07:55:07;;;;;;;2.45;1.08;;;12.10;83.10;;;;;;5036274;28;20029;-66
2023/03/22 07:57:34;;;;;;;2.80;1.30;;;12.10;83.60;;;;;;5036716;28;20449;-66
2023/03/22 08:00:00;;;;;;;2.70;1.30;;;12.20;83.30;;;;;;5037893;28;20033;-66
2023/03/22 08:02:25;;;;;;;3.90;1.50;;;12.20;82.90;;;;;;5037715;28;20052;-66
2023/03/22 08:04:53;;;;;;;3.13;1.35;;;12.20;83.50;;;;;;5037825;28;20064;-66
2023/03/22 08:07:19;;;;;;;5.60;1.85;;;12.30;83.50;;;;;;5037379;28;20079;-66
2023/03/22 08:09:45;;;;;;;4.13;1.58;;;12.40;83.00;;;;;;5036615;28;20112;-67
2023/03/22 08:12:11;;;;;;;3.40;1.50;;;12.50;83.50;;;;;;5036412;28;20936;-66
2023/03/22 08:14:36;;;;;;;3.53;1.38;;;12.50;82.70;;;;;;5037569;28;20040;-67
2023/03/22 08:17:04;;;;;;;9.18;2.67;;;12.60;83.10;;;;;;5037576;28;20075;-66
2023/03/22 08:19:30;;;;;;;2.40;1.00;;;12.50;83.70;;;;;;5037398;28;20026;-66
2023/03/22 08:21:56;;;;;;;4.13;1.25;;;12.70;83.30;;;;;;5037176;28;20053;-66
2023/03/22 08:24:22;;;;;;;3.53;1.20;;;12.80;83.60;;;;;;5036382;28;20099;-66
2023/03/22 08:26:48;;;;;;;3.97;1.10;;;12.90;83.20;;;;;;5036770;28;20042;-66
2023/03/22 08:29:14;;;;;;;3.22;1.33;;;13.60;81.00;;;;;;5036102;28;20022;-66
2023/03/22 08:31:41;;;;;;;3.60;1.10;;;14.30;79.30;;;;;;5037091;28;20322;-66
2023/03/22 08:34:06;;;;;;;3.30;1.10;;;14.70;78.30;;;;;;5036807;28;20029;-66
2023/03/22 08:36:32;;;;;;;7.38;1.10;;;15.70;77.40;;;;;;5036997;28;20037;-67
2023/03/22 08:38:57;;;;;;;6.40;1.38;;;16.10;75.20;;;;;;5036988;28;20037;-66
2023/03/22 08:41:26;;;;;;;3.78;1.10;;;15.90;75.40;;;;;;5036317;28;20025;-66
2023/03/22 08:43:52;;;;;;;5.78;1.20;;;15.80;76.50;;;;;;5035698;28;20029;-66
2023/03/22 08:46:17;;;;;;;2.55;1.10;;;15.70;76.10;;;;;;5036760;28;20410;-66
2023/03/22 08:48:49;;;;;;;4.28;1.63;;;15.90;75.20;;;;;;5035799;28;20384;-66
2023/03/22 08:51:21;;;;;;;3.15;1.10;;;16.20;75.30;;;;;;5036703;28;20021;-66
2023/03/22 08:53:47;;;;;;;3.78;1.15;;;16.70;73.80;;;;;;5036885;28;20029;-66
2023/03/22 08:56:15;;;;;;;4.28;1.33;;;16.60;73.10;;;;;;5035488;28;20029;-67
2023/03/22 08:58:45;;;;;;;4.95;1.50;;;16.50;74.30;;;;;;5034306;28;20025;-66
2023/03/22 09:01:12;;;;;;;3.40;1.33;;;17.10;72.80;;;;;;5036772;28;20029;-66
2023/03/22 09:03:37;;;;;;;3.88;1.27;;;17.40;71.20;;;;;;5034847;28;20052;-67
2023/03/22 09:06:03;;;;;;;3.28;1.00;;;16.80;71.50;;;;;;5036059;28;20025;-66
2023/03/22 09:08:29;;;;;;;2.63;1.00;;;16.70;73.10;;;;;;5036154;28;20037;-67
2023/03/22 09:10:55;;;;;;;3.65;0.95;;;16.90;72.50;;;;;;5036446;28;20437;-66
2023/03/22 09:13:20;;;;;;;7.85;1.20;;;17.10;71.80;;;;;;5035317;28;20429;-66
2023/03/22 09:15:46;;;;;;;4.20;1.20;;;16.90;72.00;;;;;;5036407;28;20326;-66
2023/03/22 09:18:13;;;;;;;3.53;1.20;;;16.90;71.40;;;;;;5036028;28;20029;-66
2023/03/22 09:20:38;;;;;;;4.43;1.15;;;16.90;71.40;;;;;;5036349;28;20045;-65
2023/03/22 09:23:04;;;;;;;2.45;1.00;;;16.60;71.90;;;;;;5035138;28;20318;-65
2023/03/22 09:25:30;;;;;;;2.22;1.10;;;17.00;71.70;;;;;;5036398;28;20067;-65
2023/03/22 09:27:55;;;;;;;3.00;1.23;;;17.00;70.90;;;;;;5054163;28;20049;-65
2023/03/22 09:30:21;;;;;;;5.43;1.35;;;17.00;71.10;;;;;;5056209;28;20360;-66
2023/03/22 09:32:47;;;;;;;46.55;6.38;;;16.90;71.10;;;;;;5056080;28;20029;-68
2023/03/22 09:35:12;;;;;;;4.93;1.40;;;17.00;71.00;;;;;;5022214;28;20032;-67
2023/03/22 09:37:38;;;;;;;2.85;1.10;;;17.30;70.80;;;;;;5052758;28;20086;-67
2023/03/22 09:40:05;;;;;;;3.55;1.05;;;17.50;70.00;;;;;;5053687;28;20085;-67
2023/03/22 09:42:44;;;;;;;3.85;1.55;;;17.50;70.60;;;;;;5054762;28;20025;-67
2023/03/22 09:45:16;;;;;;;2.75;1.08;;;17.80;70.90;;;;;;5055959;28;20028;-67
2023/03/22 09:47:46;;;;;;;4.05;1.40;;;17.90;68.70;;;;;;5055647;28;20479;-66
2023/03/22 09:50:13;;;;;;;2.80;1.20;;;17.70;70.30;;;;;;5055823;28;20043;-66
2023/03/22 09:52:40;;;;;;;3.80;1.10;;;17.70;69.00;;;;;;5054855;28;20135;-66
2023/03/22 09:55:27;;;;;;;3.00;0.90;;;18.10;69.80;;;;;;5054996;28;20330;-66
2023/03/22 09:58:06;;;;;;;2.92;1.20;;;18.20;67.00;;;;;;5054411;28;20414;-66
2023/03/22 10:00:56;;;;;;;4.47;1.13;;;18.10;66.60;;;;;;5055880;28;20021;-66
2023/03/22 10:03:36;;;;;;;3.53;1.00;;;17.70;67.50;;;;;;5055795;28;20067;-67
2023/03/22 10:06:14;;;;;;;4.47;1.30;;;17.80;67.80;;;;;;5055560;28;20043;-66
2023/03/22 10:08:49;;;;;;;3.85;1.30;;;17.80;67.90;;;;;;5054094;28;20301;-66
2023/03/22 10:11:32;;;;;;;4.78;1.23;;;17.90;68.20;;;;;;5054851;28;20028;-66
2023/03/22 10:14:47;;;;;;;2.78;1.10;;;17.80;67.40;;;;;;5054618;28;20369;-65
2023/03/22 10:17:24;;;;;;;3.70;1.25;;;17.90;67.00;;;;;;5049574;28;20033;-66
2023/03/22 10:19:54;;;;;;;3.55;1.15;;;18.10;67.10;;;;;;5055486;28;20040;-66
2023/03/22 10:22:24;;;;;;;3.38;1.20;;;18.30;65.00;;;;;;5055210;28;20036;-66
2023/03/22 10:24:52;;;;;;;3.15;1.30;;;18.00;66.40;;;;;;5055738;28;20283;-67
2023/03/22 10:27:20;;;;;;;4.07;1.40;;;18.10;67.20;;;;;;5053691;28;20049;-66
2023/03/22 10:29:59;;;;;;;2.85;1.10;;;18.40;66.50;;;;;;5055643;28;20029;-66
2023/03/22 10:32:56;;;;;;;2.63;1.20;;;18.50;66.60;;;;;;5055731;28;20025;-66
2023/03/22 10:35:21;;;;;;;3.13;1.10;;;18.50;65.90;;;;;;5055460;28;20025;-65
2023/03/22 10:37:50;;;;;;;2.80;1.20;;;18.80;65.30;;;;;;5055095;28;20095;-66
2023/03/22 10:40:31;;;;;;;4.38;1.10;;;18.80;64.40;;;;;;5055582;28;20029;-66
2023/03/22 10:43:21;;;;;;;3.25;0.90;;;18.70;64.80;;;;;;5034446;28;20033;-67
2023/03/22 10:45:49;;;;;;;3.88;1.20;;;18.80;64.90;;;;;;5040576;28;20029;-66
2023/03/22 10:48:31;;;;;;;4.75;1.25;;;19.30;63.00;;;;;;5055113;28;20029;-66
2023/03/22 10:50:58;;;;;;;3.88;1.20;;;19.40;64.10;;;;;;5055409;28;20021;-66
2023/03/22 10:53:38;;;;;;;5.60;1.45;;;19.20;63.40;;;;;;5055221;28;20031;-66
2023/03/22 10:56:05;;;;;;;2.40;1.15;;;19.00;64.30;;;;;;5054211;28;20029;-66
2023/03/22 10:58:33;;;;;;;4.18;1.10;;;19.20;63.90;;;;;;5053825;28;20451;-67
2023/03/22 11:01:04;;;;;;;4.07;1.48;;;19.30;63.30;;;;;;5055282;28;20033;-66
2023/03/22 11:03:39;;;;;;;3.28;1.20;;;19.80;62.10;;;;;;5055199;28;20037;-68
2023/03/22 11:06:23;;;;;;;3.10;1.15;;;19.30;61.80;;;;;;5057787;28;20039;-66
2023/03/22 11:08:56;;;;;;;3.85;1.40;;;19.30;62.70;;;;;;5058616;28;20421;-67
2023/03/22 11:11:25;;;;;;;2.60;1.20;;;19.60;61.90;;;;;;5057788;28;20033;-67
2023/03/22 11:14:00;;;;;;;2.42;1.10;;;19.90;62.60;;;;;;5057535;28;20318;-66
2023/03/22 11:16:27;;;;;;;3.72;1.30;;;19.90;61.60;;;;;;5058432;28;20039;-67
2023/03/22 11:18:55;;;;;;;9.02;1.50;;;20.10;61.90;;;;;;5058314;28;20321;-66
2023/03/22 11:21:29;;;;;;;5.53;1.50;;;20.10;61.70;;;;;;5058454;28;20025;-66
2023/03/22 11:24:01;;;;;;;2.38;1.10;;;19.60;62.30;;;;;;5058409;28;20313;-67
2023/03/22 11:26:33;;;;;;;2.83;1.10;;;19.40;61.40;;;;;;5057361;28;20060;-66
2023/03/22 11:29:09;;;;;;;2.78;1.33;;;19.50;62.20;;;;;;5057126;28;20021;-67
2023/03/22 11:32:17;;;;;;;2.60;1.20;;;19.60;61.90;;;;;;5058297;28;20036;-66
2023/03/22 11:34:45;;;;;;;3.45;1.30;;;19.70;62.40;;;;;;5048540;28;20087;-67
2023/03/22 11:37:16;;;;;;;4.57;1.30;;;19.60;61.20;;;;;;5057895;28;20037;-67
2023/03/22 11:39:48;;;;;;;2.42;1.10;;;19.50;62.80;;;;;;5057294;28;20021;-66
2023/03/22 11:42:19;;;;;;;3.80;1.15;;;19.80;63.30;;;;;;5056273;28;20063;-66
2023/03/22 11:44:45;;;;;;;3.58;1.40;;;19.40;62.60;;;;;;5058089;28;20021;-66
2023/03/22 11:47:12;;;;;;;2.70;1.10;;;19.20;63.50;;;;;;5058133;28;20040;-66
2023/03/22 11:49:47;;;;;;;3.10;1.40;;;19.50;62.90;;;;;;5058079;28;20425;-66
2023/03/22 11:52:20;;;;;;;3.35;1.10;;;20.20;61.30;;;;;;5057838;28;20025;-66
2023/03/22 11:54:46;;;;;;;4.43;1.48;;;20.60;61.00;;;;;;5055915;28;20013;-66
2023/03/22 11:57:26;;;;;;;3.47;1.27;;;20.70;59.50;;;;;;5050636;28;20036;-66
2023/03/22 12:00:19;;;;;;;3.22;1.38;;;20.60;59.90;;;;;;5037773;28;20017;-66
2023/03/22 12:02:53;;;;;;;4.05;1.52;;;20.50;58.80;;;;;;5037651;28;20369;-65
2023/03/22 12:05:28;;;;;;;3.38;1.30;;;20.00;59.50;;;;;;5037889;28;20025;-66
2023/03/22 12:08:14;;;;;;;2.50;1.20;;;19.80;59.60;;;;;;5037572;28;20032;-66
2023/03/22 12:10:47;;;;;;;4.03;1.30;;;19.40;60.60;;;;;;5047221;28;20025;-64
2023/03/22 12:13:16;;;;;;;5.30;1.15;;;19.50;61.50;;;;;;5055885;28;20497;-65
2023/03/22 12:15:49;;;;;;;5.47;1.30;;;19.40;61.00;;;;;;5059133;28;20044;-66
2023/03/22 12:18:25;;;;;;;2.45;1.00;;;19.30;60.60;;;;;;5056537;28;20025;-65
2023/03/22 12:20:53;;;;;;;3.65;1.15;;;19.10;57.20;;;;;;5057501;28;20036;-65
2023/03/22 12:23:22;;;;;;;1.80;0.90;;;19.30;57.80;;;;;;5057311;28;20021;-65
2023/03/22 12:26:02;;;;;;;3.15;1.00;;;19.70;56.20;;;;;;5052698;28;20428;-66
2023/03/22 12:28:40;;;;;;;2.15;0.93;;;20.00;56.20;;;;;;5056297;28;20021;-65
2023/03/22 12:31:12;;;;;;;3.03;0.95;;;20.50;54.60;;;;;;5057356;28;20021;-65
2023/03/22 12:33:46;;;;;;;3.55;0.93;;;19.80;56.10;;;;;;5057146;28;20111;-65
2023/03/22 12:36:19;;;;;;;2.13;1.00;;;19.90;55.50;;;;;;5056811;28;20029;-66
2023/03/22 12:39:05;;;;;;;1.73;0.90;;;19.80;56.60;;;;;;5057074;28;20044;-66
2023/03/22 12:41:36;;;;;;;3.70;1.10;;;19.50;58.10;;;;;;5056209;28;20048;-66
2023/03/22 12:44:18;;;;;;;3.40;1.30;;;19.70;57.30;;;;;;5055654;28;20380;-65
2023/03/22 12:46:55;;;;;;;3.63;1.30;;;20.00;56.50;;;;;;5056793;28;20033;-65
2023/03/22 12:49:39;;;;;;;2.28;1.00;;;19.80;57.20;;;;;;5056130;28;20123;-65
2023/03/22 12:52:30;;;;;;;2.55;1.20;;;20.10;56.90;;;;;;5056826;28;20020;-65
2023/03/22 12:54:58;;;;;;;4.05;0.90;;;20.50;57.00;;;;;;5056544;28;20033;-65
2023/03/22 12:57:27;;;;;;;3.65;1.17;;;20.80;57.80;;;;;;5054918;28;20381;-65
2023/03/22 12:59:56;;;;;;;2.33;1.08;;;21.00;55.90;;;;;;5056423;28;20025;-65
2023/03/22 13:02:29;;;;;;;4.60;1.10;;;20.60;55.30;;;;;;5055728;28;20052;-66
2023/03/22 13:04:58;;;;;;;1.55;0.80;;;20.40;56.20;;;;;;5055405;28;20029;-65
2023/03/22 13:07:30;;;;;;;2.63;1.10;;;20.10;57.10;;;;;;5056575;28;20052;-64
2023/03/22 13:09:57;;;;;;;3.67;1.13;;;19.90;58.60;;;;;;5056347;28;20021;-65